Terminal Aerodrome Forecast
Issued by NWS Norman, OK

Home | Current Version | Previous Version | Text Only | Print | Product List | Glossary On
Versions: 1 2 3 4 5 6 7 8 9 10 11 12 13 14 15 16 17 18 19 20 21 22 23 24
000
FTUS44 KOUN 011742
TAFOKC
TAF
KOKC 011742Z 0118/0218 19017G25KT P6SM SCT080 SCT250
     FM020000 17012KT P6SM SCT080 BKN120
      TEMPO 0208/0212 5SM -TSRA BKN050CB
     FM021200 18012KT P6SM BKN080 OVC100 PROB30 0212/0216 5SM -TSRA
      BKN040CB=

USA.gov is the U.S. government's official web portal to all federal, state and local government web resources and services.